Time;durP1;ratioP1;P1;durP2;ratioP2;P2;SDS_P1;SDS_P2;PMS_P1;PMS_P2;Temp;Humidity;BMP_temperature;BMP_pressure;BME280_temperature;BME280_humidity;BME280_pressure;Samples;Min_cycle;Max_cycle;Signal;HPM_P1;HPM_P2
2022/06/14 00:00:57;;;;;;;3.27;1.70;;;15.60;99.90;;;;;;5078940;28;20232;-48
2022/06/14 00:03:28;;;;;;;2.20;2.10;;;15.50;99.90;;;;;;5086620;28;20202;-48
2022/06/14 00:05:56;;;;;;;6.23;2.00;;;15.50;99.90;;;;;;5086813;28;20220;-47
2022/06/14 00:08:26;;;;;;;1.93;1.93;;;15.50;99.90;;;;;;5089473;28;20624;-47
2022/06/14 00:10:54;;;;;;;2.77;2.57;;;15.50;99.90;;;;;;5093714;28;20204;-47
2022/06/14 00:13:23;;;;;;;3.33;1.87;;;15.40;99.90;;;;;;5093264;28;20196;-47
2022/06/14 00:15:50;;;;;;;2.50;2.40;;;15.30;99.90;;;;;;5095326;28;20196;-47
2022/06/14 00:18:18;;;;;;;2.40;2.30;;;15.40;99.90;;;;;;5089689;28;20217;-47
2022/06/14 00:20:46;;;;;;;2.50;2.37;;;15.30;99.90;;;;;;5083511;28;20189;-48
2022/06/14 00:23:16;;;;;;;2.30;2.20;;;15.30;99.90;;;;;;5084519;28;20274;-47
2022/06/14 00:25:46;;;;;;;3.20;2.50;;;15.30;99.90;;;;;;5095168;28;20197;-47
2022/06/14 00:28:16;;;;;;;2.93;2.70;;;15.30;99.90;;;;;;5082946;28;20235;-47
2022/06/14 00:30:45;;;;;;;2.03;1.93;;;15.30;99.90;;;;;;5078777;28;20247;-48
2022/06/14 00:33:12;;;;;;;2.43;2.33;;;15.30;99.90;;;;;;5085264;28;20612;-47
2022/06/14 00:35:39;;;;;;;4.60;2.63;;;15.30;99.90;;;;;;5085765;28;20254;-47
2022/06/14 00:38:06;;;;;;;3.13;2.03;;;15.40;99.90;;;;;;5082541;28;20249;-47
2022/06/14 00:40:36;;;;;;;2.57;2.47;;;15.30;99.90;;;;;;5084835;28;20272;-47
2022/06/14 00:43:13;;;;;;;2.50;2.00;;;15.30;99.90;;;;;;5083873;28;20250;-47
2022/06/14 00:46:10;;;;;;;2.90;2.70;;;15.30;99.90;;;;;;5093496;28;20615;-47
2022/06/14 00:48:38;;;;;;;3.30;3.00;;;15.30;99.90;;;;;;5083417;28;20228;-48
2022/06/14 00:51:09;;;;;;;4.20;3.43;;;15.30;99.90;;;;;;5077129;28;20275;-48
2022/06/14 00:53:46;;;;;;;2.70;2.57;;;15.30;99.90;;;;;;5080683;28;20251;-48
2022/06/14 00:56:17;;;;;;;4.83;2.77;;;15.20;99.90;;;;;;5078605;28;20200;-48
2022/06/14 00:58:51;;;;;;;2.40;2.30;;;15.20;99.90;;;;;;5083338;28;20224;-48
2022/06/14 01:01:22;;;;;;;4.67;3.07;;;15.10;99.90;;;;;;5082226;28;20705;-48
2022/06/14 01:03:52;;;;;;;2.60;2.40;;;15.00;99.90;;;;;;5091039;28;20287;-47
2022/06/14 01:06:24;;;;;;;4.17;3.00;;;15.10;99.90;;;;;;5085668;28;20262;-47
2022/06/14 01:08:56;;;;;;;3.13;2.33;;;15.00;99.90;;;;;;5084401;28;20277;-48
2022/06/14 01:11:32;;;;;;;7.20;3.53;;;15.10;99.90;;;;;;5083468;28;20235;-48
2022/06/14 01:14:04;;;;;;;3.47;2.73;;;14.90;99.90;;;;;;5082620;28;20203;-48
2022/06/14 01:16:31;;;;;;;3.13;2.80;;;14.90;99.90;;;;;;5084428;28;20200;-47
2022/06/14 01:18:59;;;;;;;3.13;2.97;;;14.80;99.90;;;;;;5085728;28;20225;-48
2022/06/14 01:21:27;;;;;;;2.50;2.23;;;14.80;99.90;;;;;;5093051;28;20200;-47
2022/06/14 01:23:55;;;;;;;2.67;2.57;;;14.70;99.90;;;;;;5084019;28;20249;-47
2022/06/14 01:26:26;;;;;;;2.67;2.40;;;14.60;99.90;;;;;;5076165;28;20201;-48
2022/06/14 01:29:00;;;;;;;3.53;3.23;;;14.60;99.90;;;;;;5084383;28;20737;-48
2022/06/14 01:31:30;;;;;;;3.77;2.70;;;14.60;99.90;;;;;;5078774;28;20258;-48
2022/06/14 01:34:01;;;;;;;2.90;2.30;;;14.50;99.90;;;;;;5085480;28;20314;-47
2022/06/14 01:36:33;;;;;;;3.10;2.87;;;14.60;99.90;;;;;;5085193;28;20620;-47
2022/06/14 01:39:05;;;;;;;3.60;2.77;;;14.50;99.90;;;;;;5086190;28;20595;-48
2022/06/14 01:41:42;;;;;;;2.87;2.67;;;14.50;99.90;;;;;;5082048;28;20266;-48
2022/06/14 01:44:21;;;;;;;2.93;2.77;;;14.50;99.90;;;;;;5080970;28;20246;-48
2022/06/14 01:46:59;;;;;;;2.37;2.13;;;14.40;99.90;;;;;;5082399;28;20192;-48
2022/06/14 01:52:31;;;;;;;3.40;2.80;;;14.40;99.90;;;;;;5085835;28;20237;-47
2022/06/14 01:55:11;;;;;;;2.73;2.57;;;14.50;99.90;;;;;;5082448;28;20711;-48
2022/06/14 01:57:45;;;;;;;4.00;3.13;;;14.50;99.90;;;;;;5088289;28;20204;-47
2022/06/14 02:00:16;;;;;;;2.20;2.10;;;14.40;99.90;;;;;;5075304;28;20221;-48
2022/06/14 02:04:36;;;;;;;5.80;2.47;;;14.50;99.90;;;;;;5089658;28;20204;-47
2022/06/14 02:05:45;;;;;;;4.17;2.30;;;14.50;99.90;;;;;;5077083;28;20661;-48
2022/06/14 02:08:17;;;;;;;3.63;2.93;;;14.50;99.90;;;;;;5076880;28;20243;-48
2022/06/14 02:10:54;;;;;;;2.87;2.67;;;14.50;99.90;;;;;;5081449;28;20295;-48
2022/06/14 02:13:27;;;;;;;1.70;1.60;;;14.50;99.90;;;;;;5077228;28;20204;-47
2022/06/14 02:16:03;;;;;;;2.40;2.17;;;14.40;99.90;;;;;;5090518;28;20269;-47
2022/06/14 02:18:35;;;;;;;2.53;2.40;;;14.40;99.90;;;;;;5092697;28;20692;-47
2022/06/14 02:21:08;;;;;;;3.53;2.90;;;14.40;99.90;;;;;;5088358;28;20623;-48
2022/06/14 02:23:40;;;;;;;2.10;2.00;;;14.40;99.90;;;;;;5084893;28;20282;-48
2022/06/14 02:26:14;;;;;;;2.50;2.30;;;14.40;99.90;;;;;;5086202;28;20666;-48
2022/06/14 02:28:45;;;;;;;4.10;2.20;;;14.40;99.90;;;;;;5085470;28;20247;-47
2022/06/14 02:31:19;;;;;;;2.83;2.63;;;14.40;99.90;;;;;;5080552;28;20250;-48
2022/06/14 02:33:52;;;;;;;2.57;2.37;;;14.40;99.90;;;;;;5084844;28;20250;-47
2022/06/14 02:36:22;;;;;;;2.17;2.07;;;14.30;99.90;;;;;;5085398;28;20201;-48
2022/06/14 02:38:54;;;;;;;2.70;2.50;;;14.30;99.90;;;;;;5081494;28;20281;-48
2022/06/14 02:41:28;;;;;;;2.43;2.33;;;14.20;99.90;;;;;;5086838;28;20255;-47
2022/06/14 02:44:03;;;;;;;2.03;1.93;;;14.10;99.90;;;;;;5072159;28;20254;-48
2022/06/14 02:46:36;;;;;;;2.73;2.63;;;14.10;99.90;;;;;;5072411;28;20232;-48
2022/06/14 02:49:12;;;;;;;3.47;2.87;;;14.00;99.90;;;;;;5072318;28;20213;-47
2022/06/14 02:51:43;;;;;;;4.20;3.00;;;14.00;99.90;;;;;;5079126;28;20223;-47
2022/06/14 02:54:14;;;;;;;4.20;3.90;;;14.00;99.90;;;;;;5072322;28;20197;-47
2022/06/14 02:56:48;;;;;;;3.40;3.17;;;14.00;99.90;;;;;;5072385;28;20262;-47
2022/06/14 02:59:22;;;;;;;3.77;2.93;;;14.00;99.90;;;;;;5071857;28;20225;-47
2022/06/14 03:01:58;;;;;;;3.20;3.00;;;14.10;99.90;;;;;;5078765;28;20232;-48
2022/06/14 03:04:30;;;;;;;2.50;2.27;;;14.10;99.90;;;;;;5080249;28;20193;-48
2022/06/14 03:07:03;;;;;;;2.47;2.37;;;14.00;99.90;;;;;;5072781;28;20232;-48
2022/06/14 03:09:33;;;;;;;2.60;2.10;;;14.00;99.90;;;;;;5076870;28;20212;-47
2022/06/14 03:12:13;;;;;;;2.87;2.77;;;14.00;99.90;;;;;;5079070;28;20658;-47
2022/06/14 03:14:52;;;;;;;2.87;2.67;;;13.90;99.90;;;;;;5079660;28;20615;-48
2022/06/14 03:17:26;;;;;;;3.10;2.90;;;13.90;99.90;;;;;;5087714;28;20205;-48
2022/06/14 03:20:02;;;;;;;4.60;2.83;;;13.80;99.90;;;;;;5089027;28;20212;-48
2022/06/14 03:22:42;;;;;;;3.30;3.07;;;13.80;99.90;;;;;;5091841;28;20192;-47
2022/06/14 03:25:18;;;;;;;3.63;3.33;;;13.80;99.90;;;;;;5084372;28;20630;-48
2022/06/14 03:27:53;;;;;;;5.77;3.77;;;13.70;99.90;;;;;;5075387;28;20197;-47
2022/06/14 03:30:23;;;;;;;3.50;3.30;;;13.70;99.90;;;;;;5071196;28;20629;-47
2022/06/14 03:32:56;;;;;;;3.53;3.30;;;13.70;99.90;;;;;;5071666;28;20205;-47
2022/06/14 03:35:29;;;;;;;2.70;2.60;;;13.60;99.90;;;;;;5078473;28;20269;-48
2022/06/14 03:37:58;;;;;;;3.80;3.40;;;13.60;99.90;;;;;;5082584;28;20663;-47
2022/06/14 03:40:25;;;;;;;2.93;2.73;;;13.60;99.90;;;;;;5074464;28;20228;-47
2022/06/14 03:42:54;;;;;;;3.70;2.97;;;13.60;99.90;;;;;;5087730;28;20250;-47
2022/06/14 03:45:29;;;;;;;3.97;3.67;;;13.60;99.90;;;;;;5075020;28;20285;-48
2022/06/14 03:47:56;;;;;;;3.17;2.97;;;13.60;99.90;;;;;;5080511;28;20207;-47
2022/06/14 03:50:27;;;;;;;2.97;2.77;;;13.60;99.90;;;;;;5078824;28;20266;-47
2022/06/14 03:53:05;;;;;;;3.03;2.93;;;13.60;99.90;;;;;;5075523;28;20202;-48
2022/06/14 03:55:45;;;;;;;3.97;3.33;;;13.70;99.90;;;;;;5074087;28;20200;-47
2022/06/14 03:58:35;;;;;;;3.27;3.07;;;13.70;99.90;;;;;;5078168;28;20244;-47
2022/06/14 04:01:09;;;;;;;3.17;2.80;;;13.70;99.90;;;;;;5087947;28;20217;-47
2022/06/14 04:03:48;;;;;;;3.30;3.07;;;13.80;99.90;;;;;;5082516;28;20250;-47
2022/06/14 04:06:26;;;;;;;4.03;3.80;;;13.80;99.90;;;;;;5077691;28;20674;-48
2022/06/14 04:09:03;;;;;;;3.07;2.90;;;13.80;99.90;;;;;;5088393;28;20277;-48
2022/06/14 04:11:43;;;;;;;3.27;3.07;;;13.90;99.90;;;;;;5077649;28;20197;-47
2022/06/14 04:14:21;;;;;;;4.30;4.00;;;13.90;99.90;;;;;;5071311;28;20254;-47
2022/06/14 04:16:57;;;;;;;3.83;3.50;;;14.00;99.90;;;;;;5079310;28;20625;-47
2022/06/14 04:19:37;;;;;;;3.90;3.30;;;14.10;99.90;;;;;;5077081;28;20293;-47
2022/06/14 04:22:14;;;;;;;5.10;2.83;;;14.20;99.90;;;;;;5077916;28;20269;-47
2022/06/14 04:24:45;;;;;;;4.40;3.17;;;14.20;99.90;;;;;;5079911;28;20547;-47
2022/06/14 04:27:20;;;;;;;4.33;3.77;;;14.30;99.90;;;;;;5077759;28;20200;-47
2022/06/14 04:29:58;;;;;;;4.50;3.27;;;14.40;99.90;;;;;;5089933;28;20600;-48
2022/06/14 04:32:35;;;;;;;3.40;3.10;;;14.50;99.90;;;;;;5083163;28;20197;-47
2022/06/14 04:35:05;;;;;;;3.97;3.50;;;14.60;99.90;;;;;;5071275;28;20254;-48
2022/06/14 04:37:37;;;;;;;4.73;3.07;;;14.70;99.90;;;;;;5071232;28;20216;-47
2022/06/14 04:40:08;;;;;;;3.23;2.93;;;14.80;99.90;;;;;;5071777;28;20225;-47
2022/06/14 04:42:39;;;;;;;2.97;2.77;;;14.90;99.90;;;;;;5080917;28;20194;-47
2022/06/14 04:45:15;;;;;;;3.17;3.00;;;15.00;99.90;;;;;;5082711;28;20347;-48
2022/06/14 04:47:47;;;;;;;4.23;3.63;;;15.10;99.90;;;;;;5089899;28;20211;-47
2022/06/14 04:50:20;;;;;;;3.50;3.20;;;15.20;99.90;;;;;;5079223;28;20725;-47
2022/06/14 04:52:51;;;;;;;4.30;3.90;;;15.30;99.90;;;;;;5076921;28;20236;-47
2022/06/14 04:55:22;;;;;;;3.83;3.47;;;15.40;99.90;;;;;;5075319;28;20201;-47
2022/06/14 04:57:54;;;;;;;3.70;3.50;;;15.50;99.90;;;;;;5075082;28;20197;-47
2022/06/14 05:00:24;;;;;;;3.73;3.43;;;15.70;99.90;;;;;;5075086;28;20256;-48
2022/06/14 05:02:57;;;;;;;6.43;4.13;;;16.00;99.90;;;;;;5074456;28;20236;-47
2022/06/14 05:05:30;;;;;;;3.60;3.30;;;16.30;99.90;;;;;;5078737;28;20583;-47
2022/06/14 05:08:02;;;;;;;3.63;3.33;;;16.80;99.90;;;;;;5082989;28;20205;-47
2022/06/14 05:10:34;;;;;;;4.70;3.63;;;17.30;99.90;;;;;;5079073;28;20629;-48
2022/06/14 05:13:08;;;;;;;4.10;3.50;;;18.00;99.90;;;;;;5088726;22;20283;-52
2022/06/14 05:15:43;;;;;;;3.83;3.43;;;18.80;99.90;;;;;;5051051;28;20232;-52
2022/06/14 05:18:15;;;;;;;3.43;3.23;;;19.60;99.90;;;;;;5053161;28;20655;-52
2022/06/14 05:20:47;;;;;;;4.03;3.67;;;20.40;99.90;;;;;;5049856;28;20245;-51
2022/06/14 05:23:21;;;;;;;3.17;3.07;;;21.20;99.90;;;;;;5048131;28;20526;-52
2022/06/14 05:25:56;;;;;;;2.73;2.63;;;21.70;99.90;;;;;;5048862;28;20202;-51
2022/06/14 05:28:33;;;;;;;3.90;3.60;;;22.40;99.90;;;;;;5049661;28;20209;-52
2022/06/14 05:31:12;;;;;;;3.70;2.93;;;23.00;99.90;;;;;;5048277;28;20674;-52
2022/06/14 05:33:50;;;;;;;3.23;2.97;;;23.50;99.90;;;;;;5038668;28;21032;-52
2022/06/14 05:36:22;;;;;;;2.93;2.53;;;24.10;99.90;;;;;;5050291;28;20196;-52
2022/06/14 05:38:54;;;;;;;3.17;2.87;;;24.60;99.90;;;;;;5053022;28;20619;-52
2022/06/14 05:41:28;;;;;;;5.57;3.20;;;24.90;99.90;;;;;;5039825;28;20218;-53
2022/06/14 05:44:03;;;;;;;3.10;3.00;;;25.20;99.90;;;;;;5047673;28;20306;-53
2022/06/14 05:46:35;;;;;;;4.13;3.43;;;25.50;99.90;;;;;;5052447;28;20197;-52
2022/06/14 05:49:07;;;;;;;3.67;3.37;;;25.60;99.90;;;;;;5046710;28;20234;-52
2022/06/14 05:51:39;;;;;;;2.93;2.73;;;25.80;99.90;;;;;;5045729;28;20708;-53
2022/06/14 05:54:12;;;;;;;4.40;2.90;;;26.10;99.90;;;;;;5044029;28;20311;-53
2022/06/14 05:56:45;;;;;;;4.73;2.80;;;26.20;99.90;;;;;;5047087;28;20214;-53
2022/06/14 05:59:21;;;;;;;3.17;2.93;;;26.20;99.90;;;;;;5048454;28;20209;-53
2022/06/14 06:01:58;;;;;;;8.13;3.30;;;26.60;99.90;;;;;;5043809;28;20221;-53
2022/06/14 06:04:33;;;;;;;3.70;3.40;;;26.70;99.90;;;;;;5051051;28;20257;-53
2022/06/14 06:07:04;;;;;;;2.85;2.60;;;27.00;99.90;;;;;;5051655;28;20209;-53
2022/06/14 06:09:34;;;;;;;2.10;2.00;;;26.20;99.90;;;;;;5051049;28;20255;-53
2022/06/14 06:12:08;;;;;;;5.53;2.38;;;26.60;99.90;;;;;;5050616;28;20315;-53
2022/06/14 06:14:38;;;;;;;2.40;2.30;;;27.10;99.90;;;;;;5046768;28;20272;-53
2022/06/14 06:17:11;;;;;;;2.65;2.05;;;26.90;99.90;;;;;;5032962;28;20301;-53
2022/06/14 06:19:47;;;;;;;1.67;1.58;;;27.30;99.90;;;;;;5032685;28;20202;-53
2022/06/14 06:22:19;;;;;;;2.17;2.03;;;27.80;99.90;;;;;;5041252;28;20271;-53
2022/06/14 06:24:50;;;;;;;1.98;1.85;;;27.90;99.90;;;;;;5050701;28;20711;-53
2022/06/14 06:27:18;;;;;;;2.50;2.30;;;27.70;99.90;;;;;;5051823;28;20263;-53
2022/06/14 06:29:52;;;;;;;2.63;2.38;;;27.90;99.90;;;;;;5051374;28;20552;-54
2022/06/14 06:32:22;;;;;;;2.80;1.60;;;28.30;99.90;;;;;;5041141;28;20664;-54
2022/06/14 06:34:51;;;;;;;2.20;2.03;;;28.30;99.90;;;;;;5038610;28;20240;-54
2022/06/14 06:37:24;;;;;;;1.95;1.85;;;28.80;99.90;;;;;;5052327;28;20209;-53
2022/06/14 06:39:56;;;;;;;5.63;2.50;;;29.40;99.90;;;;;;5052230;28;20209;-54
2022/06/14 06:42:47;;;;;;;2.13;1.90;;;29.20;99.90;;;;;;5051796;28;20232;-54
2022/06/14 06:45:18;;;;;;;2.17;2.08;;;29.20;98.80;;;;;;5061357;28;20254;-54
2022/06/14 06:47:50;;;;;;;2.10;1.88;;;29.40;98.90;;;;;;5069605;28;20208;-54
2022/06/14 06:50:26;;;;;;;2.53;2.42;;;29.30;99.80;;;;;;5052485;28;20204;-54
2022/06/14 06:53:01;;;;;;;2.08;1.90;;;29.40;98.00;;;;;;5051692;28;20225;-54
2022/06/14 06:55:38;;;;;;;2.55;1.90;;;29.50;98.50;;;;;;5051989;28;20205;-54
2022/06/14 06:58:11;;;;;;;2.83;2.72;;;29.60;98.80;;;;;;5050731;28;20579;-54
2022/06/14 07:00:40;;;;;;;1.52;1.42;;;29.40;98.50;;;;;;5051266;28;20224;-53
2022/06/14 07:03:17;;;;;;;2.90;2.58;;;28.90;97.90;;;;;;5050954;28;20304;-54
2022/06/14 07:05:50;;;;;;;2.35;1.80;;;29.20;97.60;;;;;;5051542;28;20267;-54
2022/06/14 07:08:23;;;;;;;1.42;1.38;;;29.20;97.40;;;;;;5051282;28;20225;-54
2022/06/14 07:10:53;;;;;;;2.40;2.20;;;29.80;96.10;;;;;;5051814;28;20194;-54
2022/06/14 07:13:27;;;;;;;2.45;2.03;;;30.00;96.50;;;;;;5051389;28;20299;-54
2022/06/14 07:16:00;;;;;;;2.35;2.15;;;30.10;96.10;;;;;;5051826;28;20197;-54
2022/06/14 07:18:36;;;;;;;2.80;2.50;;;30.20;96.20;;;;;;5050755;28;20209;-54
2022/06/14 07:21:07;;;;;;;2.50;2.38;;;30.20;94.50;;;;;;5051693;28;20213;-54
2022/06/14 07:23:42;;;;;;;1.90;1.80;;;30.20;94.20;;;;;;5051379;28;20226;-54
2022/06/14 07:26:15;;;;;;;2.58;2.30;;;30.50;96.20;;;;;;5051913;28;20277;-54
2022/06/14 07:28:51;;;;;;;1.98;1.98;;;30.20;96.00;;;;;;5050451;28;20563;-54
2022/06/14 07:31:26;;;;;;;2.40;2.30;;;30.00;96.10;;;;;;5031243;28;20209;-54
2022/06/14 07:33:56;;;;;;;2.33;2.08;;;30.30;94.20;;;;;;5031788;28;20205;-54
2022/06/14 07:36:30;;;;;;;2.17;2.10;;;30.60;93.80;;;;;;5049807;28;20225;-54
2022/06/14 07:39:06;;;;;;;2.38;2.15;;;30.90;94.60;;;;;;5049952;28;20198;-54
2022/06/14 07:41:43;;;;;;;1.67;1.60;;;30.90;94.40;;;;;;5050169;28;20255;-54
2022/06/14 07:44:22;;;;;;;2.15;1.88;;;31.00;95.00;;;;;;5051381;28;20237;-54
2022/06/14 07:46:59;;;;;;;2.10;1.75;;;30.80;93.40;;;;;;5051367;28;20210;-54
2022/06/14 07:49:33;;;;;;;2.03;1.92;;;30.90;93.80;;;;;;5050357;28;20211;-54
2022/06/14 07:52:06;;;;;;;6.07;2.42;;;31.20;92.80;;;;;;5050730;28;20299;-54
2022/06/14 07:54:37;;;;;;;2.22;2.13;;;31.40;92.60;;;;;;5051446;28;20247;-54
2022/06/14 07:57:09;;;;;;;2.53;2.42;;;31.30;91.80;;;;;;5050075;28;20575;-54
2022/06/14 07:59:41;;;;;;;3.00;2.00;;;31.20;91.70;;;;;;5051093;28;20616;-53
2022/06/14 08:02:19;;;;;;;3.70;1.95;;;31.40;91.00;;;;;;5048794;28;20222;-54
2022/06/14 08:04:53;;;;;;;2.08;1.90;;;31.10;92.10;;;;;;5049382;28;21020;-53
2022/06/14 08:07:21;;;;;;;2.80;2.60;;;30.80;93.70;;;;;;5051262;28;20205;-53
2022/06/14 08:09:56;;;;;;;3.53;2.50;;;30.30;94.40;;;;;;5050964;28;20731;-54
2022/06/14 08:12:34;;;;;;;2.78;1.88;;;30.60;94.80;;;;;;5050594;28;20290;-53
2022/06/14 08:15:06;;;;;;;2.63;2.10;;;30.70;93.40;;;;;;5032072;28;20732;-54
2022/06/14 08:17:41;;;;;;;2.38;2.35;;;30.70;93.70;;;;;;5035025;28;20206;-54
2022/06/14 08:20:21;;;;;;;5.03;2.70;;;31.70;92.30;;;;;;5051411;28;20627;-54
2022/06/14 08:22:53;;;;;;;2.33;2.22;;;31.30;92.60;;;;;;5055416;28;20216;-53
2022/06/14 08:25:24;;;;;;;1.70;1.60;;;30.50;94.00;;;;;;5054603;28;20201;-54
2022/06/14 08:27:58;;;;;;;2.42;1.73;;;30.90;91.20;;;;;;5051983;28;20229;-53
2022/06/14 08:30:31;;;;;;;2.40;2.03;;;31.70;90.50;;;;;;5048884;28;20201;-53
2022/06/14 08:33:04;;;;;;;1.88;1.23;;;31.70;89.80;;;;;;5054130;28;20230;-53
2022/06/14 08:35:39;;;;;;;1.40;1.40;;;32.00;88.50;;;;;;5054610;28;20206;-53
2022/06/14 08:38:11;;;;;;;1.83;1.73;;;32.00;87.60;;;;;;5054323;28;20209;-53
2022/06/14 08:40:51;;;;;;;2.85;1.60;;;32.30;89.10;;;;;;5054049;28;20336;-53
2022/06/14 08:43:24;;;;;;;1.83;1.67;;;32.50;86.60;;;;;;5054064;28;20276;-53
2022/06/14 08:46:13;;;;;;;4.55;2.42;;;32.10;90.70;;;;;;5054372;28;20198;-53
2022/06/14 08:48:44;;;;;;;3.28;1.98;;;31.40;90.10;;;;;;5054208;28;20205;-53
2022/06/14 08:51:29;;;;;;;2.17;2.03;;;31.70;90.90;;;;;;5053924;28;20664;-53
2022/06/14 08:54:39;;;;;;;2.22;2.03;;;31.60;90.50;;;;;;5054458;28;20256;-53
2022/06/14 08:57:30;;;;;;;4.10;1.90;;;32.50;88.30;;;;;;5007754;28;20209;-53
2022/06/14 09:00:09;;;;;;;2.30;2.10;;;32.40;89.80;;;;;;5054036;28;20892;-53
2022/06/14 09:03:05;;;;;;;2.72;2.53;;;31.80;90.10;;;;;;5053887;28;20240;-53
2022/06/14 09:05:56;;;;;;;4.60;2.80;;;31.00;91.90;;;;;;5053636;28;20259;-53
2022/06/14 09:09:10;;;;;;;2.75;2.63;;;31.10;91.80;;;;;;5054100;28;20293;-53
2022/06/14 09:12:22;;;;;;;2.75;2.65;;;30.90;92.20;;;;;;5053180;28;20656;-52
2022/06/14 09:15:22;;;;;;;2.63;2.40;;;30.70;94.40;;;;;;5051199;28;20254;-53
2022/06/14 09:18:10;;;;;;;2.88;2.78;;;30.70;93.80;;;;;;5050623;28;20209;-53
2022/06/14 09:20:42;;;;;;;3.63;2.75;;;29.90;94.00;;;;;;5052978;28;20197;-52
2022/06/14 09:23:30;;;;;;;3.33;3.03;;;29.60;93.40;;;;;;5053320;28;20225;-53
2022/06/14 09:26:33;;;;;;;4.63;2.95;;;29.50;94.00;;;;;;5044981;28;20202;-53
2022/06/14 09:29:31;;;;;;;3.17;2.97;;;30.30;93.80;;;;;;5052065;28;20552;-53
2022/06/14 09:32:31;;;;;;;3.60;3.13;;;30.50;94.10;;;;;;5052499;28;20773;-53
2022/06/14 09:35:14;;;;;;;4.50;2.58;;;30.60;92.90;;;;;;5049862;28;20206;-53
2022/06/14 09:38:06;;;;;;;2.60;2.40;;;30.80;94.20;;;;;;5052913;28;20201;-53
2022/06/14 09:40:58;;;;;;;2.90;2.70;;;30.20;93.50;;;;;;5053048;28;20198;-53
2022/06/14 09:44:07;;;;;;;2.65;2.45;;;30.00;94.00;;;;;;5051844;28;20295;-53
2022/06/14 09:47:03;;;;;;;3.08;2.55;;;30.00;92.10;;;;;;5020194;28;20202;-53
2022/06/14 09:50:03;;;;;;;2.30;2.20;;;30.70;92.40;;;;;;5045977;28;20676;-54
2022/06/14 09:53:10;;;;;;;2.95;2.75;;;31.40;90.60;;;;;;5047188;28;20210;-53
2022/06/14 09:56:11;;;;;;;2.42;2.22;;;31.60;93.00;;;;;;5050124;28;20266;-53
2022/06/14 09:59:23;;;;;;;3.40;3.20;;;30.80;92.90;;;;;;5052988;28;20213;-53
2022/06/14 10:02:04;;;;;;;5.05;2.67;;;30.10;93.60;;;;;;4971341;28;20311;-53
2022/06/14 10:05:00;;;;;;;2.88;2.03;;;30.10;92.50;;;;;;5049359;28;20392;-53
2022/06/14 10:07:47;;;;;;;1.90;1.80;;;30.00;92.10;;;;;;5044017;28;20233;-53
2022/06/14 10:10:35;;;;;;;1.85;1.73;;;29.90;93.30;;;;;;5052544;28;20656;-53
2022/06/14 10:13:40;;;;;;;2.35;2.22;;;29.90;94.90;;;;;;5040974;28;20316;-53
2022/06/14 10:16:21;;;;;;;3.38;1.88;;;30.40;94.60;;;;;;4986263;28;20201;-53
2022/06/14 10:19:05;;;;;;;1.73;1.63;;;29.40;92.30;;;;;;5052380;28;20206;-53
2022/06/14 10:21:38;;;;;;;2.17;1.80;;;29.50;94.10;;;;;;5052133;28;20233;-53
2022/06/14 10:24:21;;;;;;;3.83;2.30;;;29.50;93.90;;;;;;5049571;28;20257;-54
2022/06/14 10:30:06;;;;;;;1.85;1.75;;;30.00;93.20;;;;;;5043959;28;20324;-53
2022/06/14 10:32:59;;;;;;;3.20;2.35;;;29.60;94.70;;;;;;5051939;28;20253;-53
2022/06/14 10:35:33;;;;;;;1.85;1.75;;;29.90;94.30;;;;;;5052163;28;20216;-54
2022/06/14 10:38:25;;;;;;;4.53;2.13;;;30.00;93.40;;;;;;5051780;28;20193;-54
2022/06/14 10:40:57;;;;;;;1.85;1.75;;;29.70;93.10;;;;;;5043742;28;20198;-53
2022/06/14 10:43:32;;;;;;;3.70;2.03;;;29.90;92.10;;;;;;5046495;28;20222;-53
2022/06/14 10:46:04;;;;;;;1.98;1.65;;;29.70;93.50;;;;;;5049479;28;20304;-53
2022/06/14 10:48:47;;;;;;;3.92;2.20;;;29.70;91.20;;;;;;5049215;28;20198;-53
2022/06/14 10:51:32;;;;;;;1.95;1.70;;;29.50;93.20;;;;;;5031848;28;20560;-53
2022/06/14 10:54:09;;;;;;;3.67;2.22;;;29.60;95.10;;;;;;5045740;28;20202;-53
2022/06/14 10:56:54;;;;;;;2.28;2.10;;;29.30;93.60;;;;;;5051720;28;20216;-53
2022/06/14 10:59:50;;;;;;;1.95;1.65;;;28.50;92.60;;;;;;5051917;28;20271;-53
2022/06/14 11:02:29;;;;;;;2.22;1.95;;;28.00;94.30;;;;;;5037872;28;20277;-53
2022/06/14 11:05:02;;;;;;;6.55;2.35;;;27.60;96.40;;;;;;5050465;28;20205;-53
2022/06/14 11:07:47;;;;;;;4.63;1.83;;;27.30;94.40;;;;;;5051093;28;20251;-53
2022/06/14 11:10:39;;;;;;;3.17;1.88;;;26.90;96.30;;;;;;5031751;28;20206;-52
2022/06/14 11:13:16;;;;;;;2.08;1.98;;;27.10;96.10;;;;;;5048728;28;20866;-53
2022/06/14 11:15:59;;;;;;;2.23;2.03;;;27.10;96.30;;;;;;5050132;28;20197;-53
2022/06/14 11:18:52;;;;;;;1.35;1.25;;;27.40;95.70;;;;;;5045280;28;20267;-53
2022/06/14 11:21:34;;;;;;;3.25;2.17;;;27.70;98.10;;;;;;5044240;28;20281;-53
2022/06/14 11:24:10;;;;;;;6.20;2.20;;;27.60;95.00;;;;;;5050474;28;20281;-53
2022/06/14 11:26:48;;;;;;;2.40;2.00;;;27.20;97.10;;;;;;5050686;28;20284;-53
2022/06/14 11:29:26;;;;;;;4.13;2.78;;;27.20;96.60;;;;;;5040829;28;20254;-53
2022/06/14 11:32:02;;;;;;;8.03;2.23;;;27.00;96.00;;;;;;5048649;28;20710;-53
2022/06/14 11:34:41;;;;;;;2.80;1.80;;;26.50;97.10;;;;;;5049274;28;20251;-52
2022/06/14 11:37:28;;;;;;;2.05;1.90;;;26.40;97.10;;;;;;5050065;28;20224;-53
2022/06/14 11:39:59;;;;;;;2.03;1.93;;;26.40;95.10;;;;;;5050168;28;20210;-53
2022/06/14 11:42:32;;;;;;;5.77;2.10;;;26.40;96.90;;;;;;5049294;28;20230;-53
2022/06/14 11:45:14;;;;;;;1.93;1.83;;;26.40;97.10;;;;;;5049716;28;20551;-53
2022/06/14 11:47:47;;;;;;;5.25;1.83;;;26.50;96.60;;;;;;5049810;28;20268;-53
2022/06/14 11:50:22;;;;;;;4.60;1.63;;;26.60;94.40;;;;;;5046307;28;20339;-53
2022/06/14 11:53:03;;;;;;;2.43;1.73;;;26.70;94.20;;;;;;5050434;28;20295;-53
2022/06/14 11:55:39;;;;;;;1.98;1.88;;;26.90;95.80;;;;;;5050531;28;20201;-53
2022/06/14 11:58:21;;;;;;;2.47;1.70;;;26.80;95.50;;;;;;5050999;28;20201;-53
2022/06/14 12:01:07;;;;;;;1.73;1.63;;;26.60;94.20;;;;;;5048242;28;20198;-53
2022/06/14 12:04:00;;;;;;;1.70;1.60;;;26.50;97.80;;;;;;5045954;28;20791;-53
2022/06/14 12:06:38;;;;;;;3.97;2.17;;;26.40;95.50;;;;;;5044280;28;20202;-52
2022/06/14 12:09:25;;;;;;;1.80;1.67;;;26.00;95.00;;;;;;5049872;28;20618;-52
2022/06/14 12:11:56;;;;;;;1.77;1.70;;;26.10;95.60;;;;;;5049224;28;20257;-52
2022/06/14 12:14:49;;;;;;;2.13;1.95;;;26.10;95.90;;;;;;5049434;28;20335;-53
2022/06/14 12:17:25;;;;;;;2.87;2.13;;;26.10;95.80;;;;;;5047135;28;20273;-53
2022/06/14 12:19:57;;;;;;;2.20;2.10;;;26.00;97.90;;;;;;5049423;28;20610;-53
2022/06/14 12:22:31;;;;;;;2.03;1.90;;;26.10;96.80;;;;;;5049041;28;20225;-53
2022/06/14 12:27:52;;;;;;;3.40;2.13;;;26.20;96.90;;;;;;5049454;28;20277;-52
2022/06/14 12:30:20;;;;;;;3.43;2.30;;;26.10;96.50;;;;;;5049521;28;20206;-52
2022/06/14 12:32:57;;;;;;;2.30;2.10;;;26.20;97.50;;;;;;5049521;28;20261;-53
2022/06/14 12:35:28;;;;;;;3.03;2.83;;;26.10;95.50;;;;;;5034202;28;20206;-53
2022/06/14 12:38:01;;;;;;;2.92;2.28;;;26.20;96.10;;;;;;5048052;28;20202;-53
2022/06/14 12:40:35;;;;;;;3.30;1.83;;;26.10;96.10;;;;;;5049120;28;20611;-53
2022/06/14 12:43:09;;;;;;;4.32;2.25;;;26.10;95.60;;;;;;5048669;28;20283;-52
2022/06/14 12:45:41;;;;;;;2.07;1.90;;;26.20;96.20;;;;;;5048337;28;20682;-52
2022/06/14 12:48:19;;;;;;;2.67;1.97;;;26.10;94.90;;;;;;5045690;28;20290;-53
2022/06/14 12:50:50;;;;;;;1.85;1.85;;;26.20;95.10;;;;;;5050190;28;20338;-53
2022/06/14 12:53:24;;;;;;;3.28;2.30;;;26.10;97.00;;;;;;5049897;28;20256;-53
2022/06/14 12:55:54;;;;;;;2.45;1.80;;;26.10;95.20;;;;;;5048696;28;20206;-53
2022/06/14 12:58:41;;;;;;;3.72;1.90;;;26.00;96.30;;;;;;5050508;28;20198;-53
2022/06/14 13:01:20;;;;;;;2.50;2.07;;;26.00;94.50;;;;;;5050125;28;20289;-53
2022/06/14 13:03:54;;;;;;;1.85;1.63;;;26.10;96.40;;;;;;5052575;28;20263;-53
2022/06/14 13:07:01;;;;;;;2.37;1.70;;;26.00;98.10;;;;;;5053932;28;20202;-53
2022/06/14 13:09:37;;;;;;;2.33;2.13;;;26.10;96.80;;;;;;5053835;28;20799;-52
2022/06/14 13:12:18;;;;;;;2.30;2.20;;;25.90;94.10;;;;;;5051466;28;20853;-53
2022/06/14 13:14:53;;;;;;;1.60;1.50;;;26.00;97.10;;;;;;5053687;28;20229;-53
2022/06/14 13:17:49;;;;;;;3.50;1.83;;;26.00;94.50;;;;;;5052994;28;20279;-53
2022/06/14 13:20:26;;;;;;;1.50;1.50;;;25.90;96.00;;;;;;5048461;28;20210;-53
2022/06/14 13:23:09;;;;;;;3.00;1.70;;;25.90;95.50;;;;;;5052449;28;20221;-53
2022/06/14 13:26:21;;;;;;;2.27;2.07;;;25.80;95.60;;;;;;5053452;28;20206;-53
2022/06/14 13:29:11;;;;;;;2.27;2.07;;;25.70;94.60;;;;;;5053278;28;20241;-52
2022/06/14 13:31:54;;;;;;;1.50;1.40;;;25.80;95.10;;;;;;5052463;28;20644;-52
2022/06/14 13:34:34;;;;;;;1.40;1.30;;;25.80;93.60;;;;;;5033437;28;20202;-53
2022/06/14 13:37:11;;;;;;;1.63;1.47;;;25.90;94.80;;;;;;5046019;28;20210;-53
2022/06/14 13:39:45;;;;;;;1.67;1.57;;;26.00;94.90;;;;;;5052712;28;20209;-53
2022/06/14 13:42:18;;;;;;;1.90;1.57;;;26.00;95.50;;;;;;5044865;28;20270;-53
2022/06/14 13:44:49;;;;;;;2.27;1.23;;;26.00;95.80;;;;;;5053153;28;20558;-52
2022/06/14 13:47:23;;;;;;;1.75;1.65;;;26.10;94.80;;;;;;5052972;28;20233;-53